TAM3340 SBGR-SBGL
Flight info
| Callsign | TAM3340 |
|---|---|
| Flight time | 0h 35m |
| Altitude | 21000 |
| Route | UREMI UZ42 VUREP |
| Aircraft | A21N/M-SDE2E3FGHIRWXY/LB1 |
Departure
| Time | 2026-05-05 13:16 |
|---|---|
| Airport | São Paulo/Guarulhos–Governor André Franco Montoro International Airport (SBGR) |
Arrival
| Time | 2026-05-05 13:52 |
|---|---|
| Airport | Rio Galeão – Tom Jobim International Airport (SBGL) |
| Time | Latitude | Longitude | Altitude | Speed | Heading |
|---|---|---|---|---|---|
| 2026-05-05 12:49 | -23.42617 | -46.46919 | 2469 ft | 0 kts | 254° |
| 2026-05-05 13:06 | -23.42614 | -46.46906 | 2466 ft | 2 kts | 253° |
| 2026-05-05 13:07 | -23.42609 | -46.46888 | 2464 ft | 2 kts | 253° |
| 2026-05-05 13:07 | -23.42604 | -46.46872 | 2466 ft | 2 kts | 252° |
| 2026-05-05 13:07 | -23.42598 | -46.46855 | 2468 ft | 2 kts | 244° |
| 2026-05-05 13:07 | -23.42588 | -46.46843 | 2464 ft | 2 kts | 172° |
| 2026-05-05 13:08 | -23.42584 | -46.46844 | 2464 ft | 0 kts | 165° |
| 2026-05-05 13:10 | -23.42589 | -46.46842 | 2464 ft | 2 kts | 164° |
| 2026-05-05 13:10 | -23.42606 | -46.46833 | 2469 ft | 4 kts | 141° |
| 2026-05-05 13:10 | -23.42629 | -46.46811 | 2467 ft | 5 kts | 153° |
| 2026-05-05 13:10 | -23.42670 | -46.46793 | 2467 ft | 7 kts | 159° |
| 2026-05-05 13:11 | -23.42722 | -46.46778 | 2465 ft | 8 kts | 186° |
| 2026-05-05 13:11 | -23.42774 | -46.46810 | 2470 ft | 8 kts | 199° |
| 2026-05-05 13:11 | -23.42833 | -46.46818 | 2468 ft | 9 kts | 216° |
| 2026-05-05 13:11 | -23.42863 | -46.46883 | 2464 ft | 11 kts | 255° |
| 2026-05-05 13:12 | -23.42885 | -46.46968 | 2468 ft | 13 kts | 253° |
| 2026-05-05 13:12 | -23.42913 | -46.47067 | 2469 ft | 15 kts | 253° |
| 2026-05-05 13:12 | -23.42943 | -46.47181 | 2470 ft | 17 kts | 254° |
| 2026-05-05 13:12 | -23.42978 | -46.47306 | 2465 ft | 18 kts | 253° |
| 2026-05-05 13:13 | -23.43014 | -46.47441 | 2466 ft | 19 kts | 253° |
| 2026-05-05 13:13 | -23.43053 | -46.47584 | 2463 ft | 20 kts | 253° |
| 2026-05-05 13:13 | -23.43094 | -46.47734 | 2468 ft | 21 kts | 253° |
| 2026-05-05 13:13 | -23.43137 | -46.47893 | 2467 ft | 22 kts | 253° |
| 2026-05-05 13:14 | -23.43179 | -46.48052 | 2467 ft | 22 kts | 253° |
| 2026-05-05 13:14 | -23.43221 | -46.48205 | 2469 ft | 21 kts | 254° |
| 2026-05-05 13:14 | -23.43263 | -46.48328 | 2467 ft | 12 kts | 227° |
| 2026-05-05 13:14 | -23.43333 | -46.48354 | 2467 ft | 11 kts | 173° |
| 2026-05-05 13:15 | -23.43405 | -46.48332 | 2466 ft | 11 kts | 158° |
| 2026-05-05 13:15 | -23.43420 | -46.48304 | 2467 ft | 2 kts | 75° |
| 2026-05-05 13:15 | -23.43415 | -46.48286 | 2467 ft | 4 kts | 74° |
| 2026-05-05 13:15 | -23.43353 | -46.48054 | 2469 ft | 60 kts | 73° |
| 2026-05-05 13:16 | -23.43251 | -46.47676 | 2465 ft | 97 kts | 73° |
| 2026-05-05 13:16 | -23.43002 | -46.46758 | 2468 ft | 153 kts | 73° |
| 2026-05-05 13:16 | -23.42570 | -46.45092 | 2777 ft | 177 kts | 74° |
| 2026-05-05 13:16 | -23.42266 | -46.43817 | 3393 ft | 174 kts | 73° |
| 2026-05-05 13:17 | -23.42059 | -46.42936 | 3699 ft | 184 kts | 73° |
| 2026-05-05 13:17 | -23.42003 | -46.42705 | 3733 ft | 189 kts | 73° |
| 2026-05-05 13:17 | -23.41881 | -46.42220 | 3814 ft | 198 kts | 73° |
| 2026-05-05 13:17 | -23.41472 | -46.40712 | 4096 ft | 217 kts | 71° |
| 2026-05-05 13:18 | -23.40981 | -46.39088 | 4456 ft | 236 kts | 70° |
| 2026-05-05 13:18 | -23.40412 | -46.37296 | 4759 ft | 263 kts | 74° |
| 2026-05-05 13:18 | -23.40329 | -46.35281 | 5172 ft | 283 kts | 103° |
| 2026-05-05 13:18 | -23.40913 | -46.33201 | 5877 ft | 291 kts | 108° |
| 2026-05-05 13:19 | -23.41553 | -46.31079 | 6612 ft | 299 kts | 109° |
| 2026-05-05 13:19 | -23.42224 | -46.28910 | 7298 ft | 304 kts | 109° |
| 2026-05-05 13:19 | -23.42919 | -46.26712 | 8012 ft | 310 kts | 110° |
| 2026-05-05 13:19 | -23.43638 | -46.24480 | 8761 ft | 315 kts | 110° |
| 2026-05-05 13:20 | -23.44204 | -46.22152 | 9517 ft | 320 kts | 101° |
| 2026-05-05 13:20 | -23.44580 | -46.19785 | 10274 ft | 323 kts | 101° |
| 2026-05-05 13:20 | -23.44997 | -46.17368 | 11000 ft | 326 kts | 102° |
| 2026-05-05 13:20 | -23.45473 | -46.14880 | 11292 ft | 344 kts | 104° |
| 2026-05-05 13:21 | -23.46014 | -46.12284 | 11540 ft | 358 kts | 104° |
| 2026-05-05 13:21 | -23.46592 | -46.09615 | 11961 ft | 365 kts | 104° |
| 2026-05-05 13:21 | -23.47185 | -46.06941 | 12409 ft | 372 kts | 105° |
| 2026-05-05 13:21 | -23.47808 | -46.04174 | 12895 ft | 377 kts | 103° |
| 2026-05-05 13:22 | -23.48146 | -46.01360 | 13212 ft | 371 kts | 95° |
| 2026-05-05 13:22 | -23.48386 | -45.98587 | 13228 ft | 366 kts | 98° |
| 2026-05-05 13:22 | -23.48765 | -45.95882 | 13252 ft | 365 kts | 100° |
| 2026-05-05 13:22 | -23.48948 | -45.93125 | 13364 ft | 367 kts | 87° |
| 2026-05-05 13:23 | -23.48484 | -45.90367 | 13836 ft | 374 kts | 75° |
| 2026-05-05 13:23 | -23.47742 | -45.87627 | 14343 ft | 380 kts | 75° |
| 2026-05-05 13:23 | -23.47053 | -45.84849 | 14956 ft | 381 kts | 77° |
| 2026-05-05 13:23 | -23.46404 | -45.82045 | 15570 ft | 382 kts | 77° |
| 2026-05-05 13:24 | -23.45745 | -45.79228 | 16140 ft | 386 kts | 77° |
| 2026-05-05 13:24 | -23.45068 | -45.76389 | 16701 ft | 389 kts | 76° |
| 2026-05-05 13:24 | -23.44384 | -45.73557 | 17194 ft | 393 kts | 76° |
| 2026-05-05 13:24 | -23.43680 | -45.70665 | 17705 ft | 397 kts | 76° |
| 2026-05-05 13:25 | -23.42967 | -45.67750 | 18177 ft | 400 kts | 76° |
| 2026-05-05 13:25 | -23.42245 | -45.64805 | 18603 ft | 404 kts | 76° |
| 2026-05-05 13:25 | -23.41514 | -45.61836 | 18998 ft | 407 kts | 76° |
| 2026-05-05 13:25 | -23.40778 | -45.58847 | 19396 ft | 409 kts | 76° |
| 2026-05-05 13:26 | -23.40038 | -45.55846 | 19795 ft | 412 kts | 76° |
| 2026-05-05 13:26 | -23.39294 | -45.52830 | 20222 ft | 414 kts | 77° |
| 2026-05-05 13:26 | -23.38579 | -45.49824 | 20633 ft | 416 kts | 78° |
| 2026-05-05 13:26 | -23.37902 | -45.46759 | 21043 ft | 418 kts | 79° |
| 2026-05-05 13:27 | -23.37247 | -45.43676 | 21225 ft | 418 kts | 79° |
| 2026-05-05 13:27 | -23.36598 | -45.40578 | 21244 ft | 419 kts | 79° |
| 2026-05-05 13:27 | -23.35951 | -45.37485 | 21244 ft | 420 kts | 79° |
| 2026-05-05 13:27 | -23.35299 | -45.34387 | 21243 ft | 420 kts | 79° |
| 2026-05-05 13:28 | -23.34643 | -45.31289 | 21243 ft | 420 kts | 79° |
| 2026-05-05 13:28 | -23.33990 | -45.28225 | 21242 ft | 420 kts | 79° |
| 2026-05-05 13:28 | -23.33326 | -45.25128 | 21241 ft | 420 kts | 79° |
| 2026-05-05 13:28 | -23.32662 | -45.22036 | 21242 ft | 420 kts | 79° |
| 2026-05-05 13:29 | -23.31994 | -45.18937 | 21245 ft | 420 kts | 78° |
| 2026-05-05 13:29 | -23.31328 | -45.15847 | 21247 ft | 420 kts | 79° |
| 2026-05-05 13:29 | -23.30660 | -45.12751 | 21244 ft | 419 kts | 78° |
| 2026-05-05 13:29 | -23.29995 | -45.09665 | 21236 ft | 419 kts | 78° |
| 2026-05-05 13:30 | -23.29338 | -45.06618 | 21235 ft | 419 kts | 79° |
| 2026-05-05 13:30 | -23.28671 | -45.03530 | 21236 ft | 419 kts | 79° |
| 2026-05-05 13:30 | -23.28006 | -45.00450 | 21235 ft | 419 kts | 78° |
| 2026-05-05 13:30 | -23.27336 | -44.97354 | 21246 ft | 419 kts | 78° |
| 2026-05-05 13:31 | -23.26667 | -44.94269 | 21247 ft | 419 kts | 79° |
| 2026-05-05 13:31 | -23.25997 | -44.91180 | 21235 ft | 419 kts | 78° |
| 2026-05-05 13:31 | -23.25328 | -44.88098 | 21236 ft | 419 kts | 78° |
| 2026-05-05 13:31 | -23.24666 | -44.85051 | 21230 ft | 419 kts | 79° |
| 2026-05-05 13:32 | -23.23993 | -44.81964 | 21225 ft | 419 kts | 79° |
| 2026-05-05 13:32 | -23.23320 | -44.78874 | 21237 ft | 420 kts | 78° |
| 2026-05-05 13:32 | -23.22648 | -44.75785 | 21228 ft | 419 kts | 78° |
| 2026-05-05 13:32 | -23.21975 | -44.72696 | 21228 ft | 419 kts | 78° |
| 2026-05-05 13:33 | -23.21309 | -44.69651 | 21225 ft | 419 kts | 78° |
| 2026-05-05 13:33 | -23.20636 | -44.66570 | 21216 ft | 419 kts | 78° |
| 2026-05-05 13:33 | -23.19961 | -44.63487 | 21213 ft | 419 kts | 78° |
| 2026-05-05 13:33 | -23.19283 | -44.60398 | 21213 ft | 419 kts | 78° |
| 2026-05-05 13:34 | -23.18605 | -44.57317 | 21210 ft | 419 kts | 78° |
| 2026-05-05 13:34 | -23.17686 | -44.54301 | 21209 ft | 421 kts | 69° |
| 2026-05-05 13:34 | -23.16496 | -44.51441 | 21204 ft | 421 kts | 66° |
| 2026-05-05 13:34 | -23.15226 | -44.48568 | 21210 ft | 421 kts | 66° |
| 2026-05-05 13:35 | -23.13953 | -44.45704 | 21205 ft | 421 kts | 66° |
| 2026-05-05 13:35 | -23.12684 | -44.42846 | 21159 ft | 418 kts | 66° |
| 2026-05-05 13:35 | -23.11442 | -44.40045 | 20910 ft | 405 kts | 66° |
| 2026-05-05 13:35 | -23.10236 | -44.37321 | 20577 ft | 395 kts | 66° |
| 2026-05-05 13:36 | -23.09058 | -44.34655 | 20107 ft | 389 kts | 66° |
| 2026-05-05 13:36 | -23.07891 | -44.32014 | 19742 ft | 385 kts | 65° |
| 2026-05-05 13:36 | -23.06748 | -44.29428 | 19411 ft | 385 kts | 65° |
| 2026-05-05 13:36 | -23.05589 | -44.26808 | 19082 ft | 384 kts | 65° |
| 2026-05-05 13:37 | -23.04437 | -44.24203 | 18749 ft | 382 kts | 65° |
| 2026-05-05 13:37 | -23.03290 | -44.21612 | 18380 ft | 380 kts | 65° |
| 2026-05-05 13:37 | -23.02145 | -44.19031 | 17998 ft | 378 kts | 65° |
| 2026-05-05 13:37 | -23.01011 | -44.16470 | 17612 ft | 375 kts | 65° |
| 2026-05-05 13:38 | -22.99884 | -44.13928 | 17236 ft | 372 kts | 65° |
| 2026-05-05 13:38 | -22.98765 | -44.11407 | 16812 ft | 370 kts | 65° |
| 2026-05-05 13:38 | -22.97666 | -44.08931 | 16370 ft | 367 kts | 65° |
| 2026-05-05 13:38 | -22.96562 | -44.06446 | 15936 ft | 364 kts | 65° |
| 2026-05-05 13:39 | -22.95468 | -44.03983 | 15511 ft | 361 kts | 65° |
| 2026-05-05 13:39 | -22.94381 | -44.01538 | 15090 ft | 358 kts | 65° |
| 2026-05-05 13:39 | -22.93300 | -43.99107 | 14673 ft | 356 kts | 65° |
| 2026-05-05 13:39 | -22.92226 | -43.96696 | 14296 ft | 353 kts | 65° |
| 2026-05-05 13:40 | -22.91175 | -43.94336 | 13952 ft | 351 kts | 65° |
| 2026-05-05 13:40 | -22.90116 | -43.91960 | 13560 ft | 349 kts | 66° |
| 2026-05-05 13:40 | -22.89062 | -43.89597 | 13177 ft | 347 kts | 66° |
| 2026-05-05 13:40 | -22.88013 | -43.87247 | 12779 ft | 345 kts | 66° |
| 2026-05-05 13:41 | -22.86970 | -43.84911 | 12395 ft | 343 kts | 66° |
| 2026-05-05 13:41 | -22.85935 | -43.82592 | 12035 ft | 341 kts | 66° |
| 2026-05-05 13:41 | -22.84907 | -43.80288 | 11632 ft | 337 kts | 66° |
| 2026-05-05 13:41 | -22.83891 | -43.78017 | 11203 ft | 331 kts | 66° |
| 2026-05-05 13:42 | -22.82895 | -43.75792 | 10784 ft | 325 kts | 66° |
| 2026-05-05 13:42 | -22.81937 | -43.73651 | 10345 ft | 313 kts | 66° |
| 2026-05-05 13:42 | -22.81099 | -43.71531 | 9874 ft | 300 kts | 74° |
| 2026-05-05 13:42 | -22.80525 | -43.69376 | 9353 ft | 296 kts | 78° |
| 2026-05-05 13:43 | -22.80021 | -43.67215 | 8870 ft | 294 kts | 78° |
| 2026-05-05 13:43 | -22.79534 | -43.65097 | 8364 ft | 285 kts | 78° |
| 2026-05-05 13:43 | -22.79066 | -43.63066 | 7878 ft | 278 kts | 78° |
| 2026-05-05 13:43 | -22.78601 | -43.61060 | 7376 ft | 272 kts | 78° |
| 2026-05-05 13:44 | -22.78135 | -43.59092 | 6939 ft | 269 kts | 75° |
| 2026-05-05 13:44 | -22.77364 | -43.57258 | 6535 ft | 268 kts | 54° |
| 2026-05-05 13:44 | -22.76019 | -43.55915 | 6272 ft | 261 kts | 30° |
| 2026-05-05 13:44 | -22.74395 | -43.55100 | 6036 ft | 253 kts | 24° |
| 2026-05-05 13:45 | -22.72788 | -43.54433 | 5992 ft | 243 kts | 18° |
| 2026-05-05 13:45 | -22.71202 | -43.53872 | 5998 ft | 243 kts | 20° |
| 2026-05-05 13:45 | -22.69625 | -43.53203 | 5998 ft | 243 kts | 24° |
| 2026-05-05 13:45 | -22.68150 | -43.52409 | 5986 ft | 229 kts | 33° |
| 2026-05-05 13:46 | -22.67023 | -43.51242 | 5993 ft | 225 kts | 60° |
| 2026-05-05 13:46 | -22.66564 | -43.49662 | 5994 ft | 220 kts | 91° |
| 2026-05-05 13:46 | -22.66877 | -43.48080 | 5917 ft | 213 kts | 118° |
| 2026-05-05 13:46 | -22.67630 | -43.46758 | 5728 ft | 202 kts | 127° |
| 2026-05-05 13:47 | -22.68449 | -43.45546 | 5437 ft | 198 kts | 128° |
| 2026-05-05 13:47 | -22.69268 | -43.44354 | 5081 ft | 197 kts | 127° |
| 2026-05-05 13:47 | -22.70087 | -43.43151 | 4655 ft | 200 kts | 127° |
| 2026-05-05 13:47 | -22.70907 | -43.41934 | 4217 ft | 205 kts | 126° |
| 2026-05-05 13:48 | -22.71751 | -43.40672 | 3794 ft | 208 kts | 126° |
| 2026-05-05 13:48 | -22.72592 | -43.39409 | 3370 ft | 203 kts | 125° |
| 2026-05-05 13:48 | -22.73403 | -43.38191 | 2938 ft | 196 kts | 125° |
| 2026-05-05 13:48 | -22.74191 | -43.37005 | 2500 ft | 192 kts | 124° |
| 2026-05-05 13:49 | -22.74955 | -43.35854 | 2091 ft | 183 kts | 125° |
| 2026-05-05 13:49 | -22.75663 | -43.34790 | 1937 ft | 166 kts | 124° |
| 2026-05-05 13:49 | -22.76311 | -43.33819 | 1685 ft | 159 kts | 126° |
| 2026-05-05 13:49 | -22.76954 | -43.32864 | 1462 ft | 155 kts | 124° |
| 2026-05-05 13:50 | -22.77561 | -43.31911 | 1236 ft | 152 kts | 124° |
| 2026-05-05 13:50 | -22.78167 | -43.30967 | 1077 ft | 153 kts | 125° |
| 2026-05-05 13:50 | -22.78797 | -43.30041 | 895 ft | 152 kts | 126° |
| 2026-05-05 13:50 | -22.79410 | -43.29111 | 686 ft | 151 kts | 124° |
| 2026-05-05 13:51 | -22.80025 | -43.28191 | 465 ft | 150 kts | 125° |
| 2026-05-05 13:51 | -22.80638 | -43.27288 | 267 ft | 148 kts | 123° |
| 2026-05-05 13:51 | -22.81233 | -43.26376 | 73 ft | 148 kts | 124° |
| 2026-05-05 13:51 | -22.81798 | -43.25526 | 28 ft | 123 kts | 126° |
| 2026-05-05 13:52 | -22.82195 | -43.24934 | 25 ft | 71 kts | 125° |
| 2026-05-05 13:52 | -22.82334 | -43.24689 | 22 ft | 21 kts | 107° |
| 2026-05-05 13:52 | -22.82359 | -43.24560 | 22 ft | 13 kts | 97° |
| 2026-05-05 13:52 | -22.82367 | -43.24489 | 22 ft | 9 kts | 94° |
| 2026-05-05 13:53 | -22.82330 | -43.24459 | 21 ft | 7 kts | 338° |
| 2026-05-05 13:53 | -22.82302 | -43.24496 | 22 ft | 6 kts | 307° |
| 2026-05-05 13:53 | -22.82278 | -43.24533 | 23 ft | 6 kts | 306° |
| 2026-05-05 13:53 | -22.82253 | -43.24570 | 23 ft | 7 kts | 306° |
| 2026-05-05 13:54 | -22.82219 | -43.24621 | 24 ft | 10 kts | 306° |
| 2026-05-05 13:54 | -22.82175 | -43.24687 | 22 ft | 12 kts | 306° |
| 2026-05-05 13:54 | -22.82124 | -43.24765 | 27 ft | 13 kts | 306° |
| 2026-05-05 13:54 | -22.82071 | -43.24844 | 27 ft | 13 kts | 306° |
| 2026-05-05 13:55 | -22.82015 | -43.24929 | 29 ft | 15 kts | 305° |
| 2026-05-05 13:55 | -22.81950 | -43.25027 | 27 ft | 16 kts | 306° |
| 2026-05-05 13:55 | -22.81883 | -43.25129 | 28 ft | 17 kts | 305° |
| 2026-05-05 13:55 | -22.81815 | -43.25233 | 27 ft | 14 kts | 307° |
| 2026-05-05 13:56 | -22.81736 | -43.25234 | 30 ft | 13 kts | 37° |
| 2026-05-05 13:56 | -22.81664 | -43.25177 | 28 ft | 14 kts | 35° |
| 2026-05-05 13:56 | -22.81582 | -43.25115 | 28 ft | 15 kts | 35° |
| 2026-05-05 13:56 | -22.81510 | -43.25061 | 26 ft | 7 kts | 34° |
| 2026-05-05 13:57 | -22.81484 | -43.25015 | 25 ft | 7 kts | 86° |
| 2026-05-05 13:57 | -22.81485 | -43.24959 | 27 ft | 8 kts | 76° |
| 2026-05-05 13:57 | -22.81454 | -43.24914 | 25 ft | 8 kts | 22° |
| 2026-05-05 13:57 | -22.81427 | -43.24883 | 26 ft | 5 kts | 69° |
| 2026-05-05 13:58 | -22.81412 | -43.24844 | 27 ft | 3 kts | 67° |
| 2026-05-05 13:58 | -22.81408 | -43.24834 | 26 ft | 0 kts | 67° |